sensor_id;sensor_type;location;lat;lon;timestamp;P1;durP1;ratioP1;P2;durP2;ratioP2
6394;SDS011;3230;42.588;23.358;2022-09-09T00:01:15;14.87;;;9.27;;
6394;SDS011;3230;42.588;23.358;2022-09-09T00:04:09;13.93;;;9.30;;
6394;SDS011;3230;42.588;23.358;2022-09-09T00:06:44;11.47;;;7.90;;
6394;SDS011;3230;42.588;23.358;2022-09-09T00:09:17;13.63;;;9.03;;
6394;SDS011;3230;42.588;23.358;2022-09-09T00:15:19;13.27;;;8.63;;
6394;SDS011;3230;42.588;23.358;2022-09-09T00:17:35;13.03;;;9.33;;
6394;SDS011;3230;42.588;23.358;2022-09-09T00:20:41;12.03;;;8.70;;
6394;SDS011;3230;42.588;23.358;2022-09-09T00:23:16;12.10;;;8.37;;
6394;SDS011;3230;42.588;23.358;2022-09-09T00:31:30;10.70;;;7.27;;
6394;SDS011;3230;42.588;23.358;2022-09-09T00:34:03;12.80;;;8.70;;
6394;SDS011;3230;42.588;23.358;2022-09-09T00:36:36;16.27;;;9.40;;
6394;SDS011;3230;42.588;23.358;2022-09-09T00:39:03;12.50;;;9.53;;
6394;SDS011;3230;42.588;23.358;2022-09-09T00:41:40;11.03;;;8.80;;
6394;SDS011;3230;42.588;23.358;2022-09-09T00:46:56;16.37;;;9.23;;
6394;SDS011;3230;42.588;23.358;2022-09-09T00:54:50;14.33;;;8.87;;
6394;SDS011;3230;42.588;23.358;2022-09-09T00:57:30;13.60;;;8.00;;
6394;SDS011;3230;42.588;23.358;2022-09-09T01:05:05;17.03;;;8.43;;
6394;SDS011;3230;42.588;23.358;2022-09-09T01:07:37;15.50;;;8.60;;
6394;SDS011;3230;42.588;23.358;2022-09-09T01:10:07;13.60;;;8.60;;
6394;SDS011;3230;42.588;23.358;2022-09-09T01:12:47;14.03;;;9.70;;
6394;SDS011;3230;42.588;23.358;2022-09-09T01:15:20;14.33;;;8.50;;
6394;SDS011;3230;42.588;23.358;2022-09-09T01:18:23;13.00;;;9.27;;
6394;SDS011;3230;42.588;23.358;2022-09-09T01:29:00;12.33;;;8.47;;
6394;SDS011;3230;42.588;23.358;2022-09-09T01:33:57;13.40;;;9.07;;
6394;SDS011;3230;42.588;23.358;2022-09-09T01:36:29;12.47;;;9.60;;
6394;SDS011;3230;42.588;23.358;2022-09-09T01:39:22;16.47;;;8.87;;
6394;SDS011;3230;42.588;23.358;2022-09-09T01:41:48;10.30;;;8.20;;
6394;SDS011;3230;42.588;23.358;2022-09-09T01:44:13;11.00;;;8.20;;
6394;SDS011;3230;42.588;23.358;2022-09-09T01:46:39;13.63;;;8.53;;
6394;SDS011;3230;42.588;23.358;2022-09-09T01:49:05;15.37;;;9.03;;
6394;SDS011;3230;42.588;23.358;2022-09-09T01:51:32;15.40;;;9.70;;
6394;SDS011;3230;42.588;23.358;2022-09-09T01:53:59;15.33;;;8.83;;
6394;SDS011;3230;42.588;23.358;2022-09-09T01:59:13;16.13;;;10.10;;
6394;SDS011;3230;42.588;23.358;2022-09-09T02:04:39;12.63;;;9.33;;
6394;SDS011;3230;42.588;23.358;2022-09-09T02:10:34;13.27;;;9.93;;
6394;SDS011;3230;42.588;23.358;2022-09-09T02:13:07;14.17;;;10.23;;
6394;SDS011;3230;42.588;23.358;2022-09-09T02:18:17;17.07;;;11.77;;
6394;SDS011;3230;42.588;23.358;2022-09-09T02:21:20;16.23;;;9.80;;
6394;SDS011;3230;42.588;23.358;2022-09-09T02:23:48;14.43;;;10.60;;
6394;SDS011;3230;42.588;23.358;2022-09-09T02:26:17;14.73;;;10.00;;
6394;SDS011;3230;42.588;23.358;2022-09-09T02:28:47;16.10;;;10.30;;
6394;SDS011;3230;42.588;23.358;2022-09-09T02:31:15;14.00;;;10.27;;
6394;SDS011;3230;42.588;23.358;2022-09-09T02:33:45;13.80;;;10.30;;
6394;SDS011;3230;42.588;23.358;2022-09-09T02:36:16;15.33;;;11.37;;
6394;SDS011;3230;42.588;23.358;2022-09-09T02:38:45;14.10;;;10.20;;
6394;SDS011;3230;42.588;23.358;2022-09-09T02:41:15;15.30;;;10.50;;
6394;SDS011;3230;42.588;23.358;2022-09-09T02:43:46;14.33;;;10.57;;
6394;SDS011;3230;42.588;23.358;2022-09-09T02:49:06;14.90;;;10.80;;
6394;SDS011;3230;42.588;23.358;2022-09-09T02:51:46;13.90;;;10.53;;
6394;SDS011;3230;42.588;23.358;2022-09-09T02:54:34;13.30;;;10.33;;
6394;SDS011;3230;42.588;23.358;2022-09-09T02:59:34;14.77;;;10.63;;
6394;SDS011;3230;42.588;23.358;2022-09-09T03:01:59;14.70;;;10.37;;
6394;SDS011;3230;42.588;23.358;2022-09-09T03:04:26;13.93;;;10.57;;
6394;SDS011;3230;42.588;23.358;2022-09-09T03:06:51;14.70;;;10.13;;
6394;SDS011;3230;42.588;23.358;2022-09-09T03:09:17;13.83;;;9.30;;
6394;SDS011;3230;42.588;23.358;2022-09-09T03:11:42;19.30;;;10.07;;
6394;SDS011;3230;42.588;23.358;2022-09-09T03:14:07;16.43;;;10.83;;
6394;SDS011;3230;42.588;23.358;2022-09-09T03:16:33;15.47;;;10.50;;
6394;SDS011;3230;42.588;23.358;2022-09-09T03:18:59;14.37;;;9.73;;
6394;SDS011;3230;42.588;23.358;2022-09-09T03:21:25;16.53;;;10.67;;
6394;SDS011;3230;42.588;23.358;2022-09-09T03:23:51;18.30;;;10.63;;
6394;SDS011;3230;42.588;23.358;2022-09-09T03:26:16;14.67;;;10.40;;
6394;SDS011;3230;42.588;23.358;2022-09-09T03:28:42;14.27;;;10.87;;
6394;SDS011;3230;42.588;23.358;2022-09-09T03:31:08;16.07;;;10.87;;
6394;SDS011;3230;42.588;23.358;2022-09-09T03:33:35;18.70;;;11.23;;
6394;SDS011;3230;42.588;23.358;2022-09-09T03:36:02;15.57;;;10.73;;
6394;SDS011;3230;42.588;23.358;2022-09-09T03:38:28;14.17;;;10.00;;
6394;SDS011;3230;42.588;23.358;2022-09-09T03:40:54;14.97;;;10.50;;
6394;SDS011;3230;42.588;23.358;2022-09-09T03:43:22;13.57;;;9.67;;
6394;SDS011;3230;42.588;23.358;2022-09-09T03:45:48;15.73;;;10.27;;
6394;SDS011;3230;42.588;23.358;2022-09-09T03:48:14;13.20;;;10.40;;
6394;SDS011;3230;42.588;23.358;2022-09-09T03:50:47;15.70;;;10.30;;
6394;SDS011;3230;42.588;23.358;2022-09-09T03:53:17;16.93;;;11.00;;
6394;SDS011;3230;42.588;23.358;2022-09-09T03:55:46;34.50;;;19.73;;
6394;SDS011;3230;42.588;23.358;2022-09-09T03:58:13;32.00;;;18.90;;
6394;SDS011;3230;42.588;23.358;2022-09-09T04:00:39;21.80;;;13.47;;
6394;SDS011;3230;42.588;23.358;2022-09-09T04:03:10;16.60;;;10.97;;
6394;SDS011;3230;42.588;23.358;2022-09-09T04:05:36;13.60;;;10.13;;
6394;SDS011;3230;42.588;23.358;2022-09-09T04:08:05;15.07;;;10.27;;
6394;SDS011;3230;42.588;23.358;2022-09-09T04:10:31;17.17;;;10.40;;
6394;SDS011;3230;42.588;23.358;2022-09-09T04:12:57;13.93;;;10.03;;
6394;SDS011;3230;42.588;23.358;2022-09-09T04:15:24;13.37;;;9.90;;
6394;SDS011;3230;42.588;23.358;2022-09-09T04:17:49;15.10;;;8.87;;
6394;SDS011;3230;42.588;23.358;2022-09-09T04:20:15;12.60;;;9.17;;
6394;SDS011;3230;42.588;23.358;2022-09-09T04:22:40;26.23;;;11.20;;
6394;SDS011;3230;42.588;23.358;2022-09-09T04:25:05;17.70;;;9.47;;
6394;SDS011;3230;42.588;23.358;2022-09-09T04:27:31;21.20;;;10.30;;
6394;SDS011;3230;42.588;23.358;2022-09-09T04:29:57;11.90;;;8.30;;
6394;SDS011;3230;42.588;23.358;2022-09-09T04:32:22;15.80;;;10.17;;
6394;SDS011;3230;42.588;23.358;2022-09-09T04:34:48;16.13;;;11.50;;
6394;SDS011;3230;42.588;23.358;2022-09-09T04:37:14;18.13;;;10.00;;
6394;SDS011;3230;42.588;23.358;2022-09-09T04:39:39;20.40;;;11.23;;
6394;SDS011;3230;42.588;23.358;2022-09-09T04:42:05;15.00;;;9.30;;
6394;SDS011;3230;42.588;23.358;2022-09-09T04:44:30;15.43;;;10.27;;
6394;SDS011;3230;42.588;23.358;2022-09-09T04:46:55;20.27;;;9.57;;
6394;SDS011;3230;42.588;23.358;2022-09-09T04:49:21;24.33;;;10.07;;
6394;SDS011;3230;42.588;23.358;2022-09-09T04:51:48;14.57;;;8.80;;
6394;SDS011;3230;42.588;23.358;2022-09-09T04:54:14;14.27;;;8.60;;
6394;SDS011;3230;42.588;23.358;2022-09-09T04:56:40;13.33;;;7.63;;
6394;SDS011;3230;42.588;23.358;2022-09-09T04:59:07;13.30;;;9.73;;
6394;SDS011;3230;42.588;23.358;2022-09-09T05:01:32;12.67;;;9.50;;
6394;SDS011;3230;42.588;23.358;2022-09-09T05:03:59;10.40;;;7.77;;
6394;SDS011;3230;42.588;23.358;2022-09-09T05:06:24;12.73;;;8.00;;
6394;SDS011;3230;42.588;23.358;2022-09-09T05:08:50;11.03;;;7.83;;
6394;SDS011;3230;42.588;23.358;2022-09-09T05:11:22;12.10;;;7.63;;
6394;SDS011;3230;42.588;23.358;2022-09-09T05:13:49;9.73;;;6.97;;
6394;SDS011;3230;42.588;23.358;2022-09-09T05:16:16;21.10;;;7.63;;
6394;SDS011;3230;42.588;23.358;2022-09-09T05:18:42;10.60;;;6.70;;
6394;SDS011;3230;42.588;23.358;2022-09-09T05:21:09;10.70;;;7.23;;
6394;SDS011;3230;42.588;23.358;2022-09-09T05:23:35;9.57;;;6.73;;
6394;SDS011;3230;42.588;23.358;2022-09-09T05:26:01;8.83;;;6.13;;
6394;SDS011;3230;42.588;23.358;2022-09-09T05:28:27;13.47;;;6.60;;
6394;SDS011;3230;42.588;23.358;2022-09-09T05:30:57;8.13;;;6.30;;
6394;SDS011;3230;42.588;23.358;2022-09-09T05:33:33;11.47;;;6.70;;
6394;SDS011;3230;42.588;23.358;2022-09-09T05:36:00;9.70;;;6.60;;
6394;SDS011;3230;42.588;23.358;2022-09-09T05:38:30;14.23;;;6.50;;
6394;SDS011;3230;42.588;23.358;2022-09-09T05:40:58;11.40;;;6.27;;
6394;SDS011;3230;42.588;23.358;2022-09-09T05:43:24;17.10;;;6.53;;
6394;SDS011;3230;42.588;23.358;2022-09-09T05:46:06;11.70;;;6.53;;
6394;SDS011;3230;42.588;23.358;2022-09-09T05:48:40;10.40;;;6.90;;
6394;SDS011;3230;42.588;23.358;2022-09-09T05:51:09;8.33;;;6.20;;
6394;SDS011;3230;42.588;23.358;2022-09-09T05:53:37;7.40;;;6.20;;
6394;SDS011;3230;42.588;23.358;2022-09-09T05:58:39;10.03;;;5.97;;
6394;SDS011;3230;42.588;23.358;2022-09-09T06:01:13;13.13;;;6.30;;
6394;SDS011;3230;42.588;23.358;2022-09-09T06:03:41;8.83;;;5.60;;
6394;SDS011;3230;42.588;23.358;2022-09-09T06:06:08;6.80;;;5.83;;
6394;SDS011;3230;42.588;23.358;2022-09-09T06:08:37;6.60;;;6.00;;
6394;SDS011;3230;42.588;23.358;2022-09-09T06:11:05;7.97;;;5.60;;
6394;SDS011;3230;42.588;23.358;2022-09-09T06:13:38;12.23;;;5.07;;
6394;SDS011;3230;42.588;23.358;2022-09-09T06:16:08;9.20;;;6.00;;
6394;SDS011;3230;42.588;23.358;2022-09-09T06:18:38;9.07;;;5.53;;
6394;SDS011;3230;42.588;23.358;2022-09-09T06:21:05;9.77;;;5.70;;
6394;SDS011;3230;42.588;23.358;2022-09-09T06:23:40;12.10;;;5.17;;
6394;SDS011;3230;42.588;23.358;2022-09-09T06:26:09;8.73;;;4.80;;
6394;SDS011;3230;42.588;23.358;2022-09-09T06:28:37;9.13;;;6.00;;
6394;SDS011;3230;42.588;23.358;2022-09-09T06:31:03;8.60;;;5.03;;
6394;SDS011;3230;42.588;23.358;2022-09-09T06:33:34;7.37;;;4.77;;
6394;SDS011;3230;42.588;23.358;2022-09-09T06:36:02;5.77;;;5.07;;
6394;SDS011;3230;42.588;23.358;2022-09-09T06:38:31;6.97;;;5.33;;
6394;SDS011;3230;42.588;23.358;2022-09-09T06:40:57;11.47;;;5.40;;
6394;SDS011;3230;42.588;23.358;2022-09-09T06:43:25;6.77;;;5.40;;
6394;SDS011;3230;42.588;23.358;2022-09-09T06:45:55;9.27;;;5.13;;
6394;SDS011;3230;42.588;23.358;2022-09-09T06:48:28;6.40;;;4.90;;
6394;SDS011;3230;42.588;23.358;2022-09-09T06:51:08;7.10;;;5.73;;
6394;SDS011;3230;42.588;23.358;2022-09-09T06:53:38;6.33;;;5.70;;
6394;SDS011;3230;42.588;23.358;2022-09-09T06:56:19;5.77;;;5.17;;
6394;SDS011;3230;42.588;23.358;2022-09-09T06:58:50;5.73;;;5.23;;
6394;SDS011;3230;42.588;23.358;2022-09-09T07:01:18;8.10;;;5.57;;
6394;SDS011;3230;42.588;23.358;2022-09-09T07:03:51;7.70;;;5.60;;
6394;SDS011;3230;42.588;23.358;2022-09-09T07:06:32;7.73;;;5.70;;
6394;SDS011;3230;42.588;23.358;2022-09-09T07:09:12;8.07;;;5.83;;
6394;SDS011;3230;42.588;23.358;2022-09-09T07:11:40;7.17;;;6.47;;
6394;SDS011;3230;42.588;23.358;2022-09-09T07:14:08;6.07;;;5.53;;
6394;SDS011;3230;42.588;23.358;2022-09-09T07:16:35;7.00;;;6.30;;
6394;SDS011;3230;42.588;23.358;2022-09-09T07:19:04;7.50;;;6.30;;
6394;SDS011;3230;42.588;23.358;2022-09-09T07:21:30;10.37;;;6.47;;
6394;SDS011;3230;42.588;23.358;2022-09-09T07:23:57;7.13;;;6.00;;
6394;SDS011;3230;42.588;23.358;2022-09-09T07:26:25;8.83;;;6.40;;
6394;SDS011;3230;42.588;23.358;2022-09-09T07:28:52;11.67;;;6.97;;
6394;SDS011;3230;42.588;23.358;2022-09-09T07:31:19;7.10;;;6.40;;
6394;SDS011;3230;42.588;23.358;2022-09-09T07:33:50;14.17;;;6.70;;
6394;SDS011;3230;42.588;23.358;2022-09-09T07:36:16;7.70;;;6.90;;
6394;SDS011;3230;42.588;23.358;2022-09-09T07:38:44;7.90;;;6.70;;
6394;SDS011;3230;42.588;23.358;2022-09-09T07:41:12;8.67;;;7.50;;
6394;SDS011;3230;42.588;23.358;2022-09-09T07:43:41;7.47;;;6.77;;
6394;SDS011;3230;42.588;23.358;2022-09-09T07:46:07;9.60;;;6.30;;
6394;SDS011;3230;42.588;23.358;2022-09-09T07:48:33;7.13;;;6.40;;
6394;SDS011;3230;42.588;23.358;2022-09-09T07:51:03;7.47;;;6.67;;
6394;SDS011;3230;42.588;23.358;2022-09-09T07:53:33;7.40;;;6.70;;
6394;SDS011;3230;42.588;23.358;2022-09-09T07:56:06;11.40;;;6.90;;
6394;SDS011;3230;42.588;23.358;2022-09-09T07:58:35;6.53;;;5.93;;
6394;SDS011;3230;42.588;23.358;2022-09-09T08:01:37;6.73;;;6.07;;
6394;SDS011;3230;42.588;23.358;2022-09-09T08:03:57;12.50;;;6.43;;
6394;SDS011;3230;42.588;23.358;2022-09-09T08:06:31;8.27;;;6.73;;
6394;SDS011;3230;42.588;23.358;2022-09-09T08:09:00;8.53;;;7.37;;
6394;SDS011;3230;42.588;23.358;2022-09-09T08:11:26;11.63;;;7.27;;
6394;SDS011;3230;42.588;23.358;2022-09-09T08:13:52;7.90;;;6.80;;
6394;SDS011;3230;42.588;23.358;2022-09-09T08:16:20;9.83;;;6.80;;
6394;SDS011;3230;42.588;23.358;2022-09-09T08:18:47;8.77;;;6.73;;
6394;SDS011;3230;42.588;23.358;2022-09-09T08:21:16;8.70;;;6.53;;
6394;SDS011;3230;42.588;23.358;2022-09-09T08:23:46;9.63;;;6.67;;
6394;SDS011;3230;42.588;23.358;2022-09-09T08:26:17;11.10;;;6.13;;
6394;SDS011;3230;42.588;23.358;2022-09-09T08:28:47;12.60;;;6.60;;
6394;SDS011;3230;42.588;23.358;2022-09-09T08:31:17;7.60;;;6.43;;
6394;SDS011;3230;42.588;23.358;2022-09-09T08:33:44;10.03;;;6.77;;
6394;SDS011;3230;42.588;23.358;2022-09-09T08:36:19;8.97;;;6.20;;
6394;SDS011;3230;42.588;23.358;2022-09-09T08:38:49;9.13;;;6.97;;
6394;SDS011;3230;42.588;23.358;2022-09-09T08:55:47;10.70;;;7.07;;
6394;SDS011;3230;42.588;23.358;2022-09-09T08:58:16;12.37;;;6.93;;
6394;SDS011;3230;42.588;23.358;2022-09-09T09:06:27;13.10;;;7.23;;
6394;SDS011;3230;42.588;23.358;2022-09-09T09:09:40;9.70;;;6.70;;
6394;SDS011;3230;42.588;23.358;2022-09-09T09:12:02;11.43;;;6.00;;
6394;SDS011;3230;42.588;23.358;2022-09-09T09:14:40;8.80;;;6.73;;
6394;SDS011;3230;42.588;23.358;2022-09-09T09:17:10;10.70;;;6.77;;
6394;SDS011;3230;42.588;23.358;2022-09-09T09:19:40;17.43;;;7.13;;
6394;SDS011;3230;42.588;23.358;2022-09-09T09:22:16;18.23;;;6.90;;
6394;SDS011;3230;42.588;23.358;2022-09-09T09:27:52;10.87;;;6.70;;
6394;SDS011;3230;42.588;23.358;2022-09-09T09:30:48;14.50;;;7.43;;
6394;SDS011;3230;42.588;23.358;2022-09-09T09:33:46;12.20;;;7.00;;
6394;SDS011;3230;42.588;23.358;2022-09-09T09:36:15;13.83;;;6.70;;
6394;SDS011;3230;42.588;23.358;2022-09-09T09:38:54;12.97;;;6.93;;
6394;SDS011;3230;42.588;23.358;2022-09-09T09:41:31;14.70;;;7.57;;
6394;SDS011;3230;42.588;23.358;2022-09-09T09:44:03;12.80;;;7.33;;
6394;SDS011;3230;42.588;23.358;2022-09-09T09:46:30;11.13;;;7.00;;
6394;SDS011;3230;42.588;23.358;2022-09-09T09:48:57;11.60;;;7.17;;
6394;SDS011;3230;42.588;23.358;2022-09-09T09:51:31;9.53;;;6.10;;
6394;SDS011;3230;42.588;23.358;2022-09-09T09:54:14;12.30;;;8.50;;
6394;SDS011;3230;42.588;23.358;2022-09-09T09:56:41;14.83;;;6.97;;
6394;SDS011;3230;42.588;23.358;2022-09-09T09:59:21;10.73;;;6.67;;
6394;SDS011;3230;42.588;23.358;2022-09-09T10:01:49;14.40;;;7.47;;
6394;SDS011;3230;42.588;23.358;2022-09-09T10:06:43;8.80;;;6.60;;
6394;SDS011;3230;42.588;23.358;2022-09-09T10:12:09;9.80;;;6.97;;
6394;SDS011;3230;42.588;23.358;2022-09-09T10:17:20;8.90;;;6.60;;
6394;SDS011;3230;42.588;23.358;2022-09-09T10:20:10;10.10;;;6.77;;
6394;SDS011;3230;42.588;23.358;2022-09-09T10:22:52;9.67;;;7.00;;
6394;SDS011;3230;42.588;23.358;2022-09-09T10:33:51;13.47;;;6.70;;
6394;SDS011;3230;42.588;23.358;2022-09-09T10:36:32;9.40;;;7.00;;
6394;SDS011;3230;42.588;23.358;2022-09-09T10:44:12;13.13;;;7.10;;
6394;SDS011;3230;42.588;23.358;2022-09-09T10:55:14;9.60;;;6.43;;
6394;SDS011;3230;42.588;23.358;2022-09-09T10:57:57;11.67;;;7.47;;
6394;SDS011;3230;42.588;23.358;2022-09-09T11:00:27;13.63;;;7.20;;
6394;SDS011;3230;42.588;23.358;2022-09-09T11:03:03;11.30;;;7.20;;
6394;SDS011;3230;42.588;23.358;2022-09-09T11:08:20;12.03;;;7.00;;
6394;SDS011;3230;42.588;23.358;2022-09-09T11:10:52;16.90;;;6.20;;
6394;SDS011;3230;42.588;23.358;2022-09-09T11:15:55;10.17;;;7.10;;
6394;SDS011;3230;42.588;23.358;2022-09-09T11:18:28;11.17;;;6.67;;
6394;SDS011;3230;42.588;23.358;2022-09-09T11:20:59;9.33;;;6.60;;
6394;SDS011;3230;42.588;23.358;2022-09-09T11:23:39;11.17;;;7.43;;
6394;SDS011;3230;42.588;23.358;2022-09-09T11:26:12;11.47;;;6.73;;
6394;SDS011;3230;42.588;23.358;2022-09-09T11:42:42;14.83;;;7.53;;
6394;SDS011;3230;42.588;23.358;2022-09-09T11:45:21;11.43;;;7.00;;
6394;SDS011;3230;42.588;23.358;2022-09-09T11:47:56;11.87;;;7.50;;
6394;SDS011;3230;42.588;23.358;2022-09-09T11:52:48;17.93;;;7.97;;
6394;SDS011;3230;42.588;23.358;2022-09-09T11:55:27;14.13;;;7.47;;
6394;SDS011;3230;42.588;23.358;2022-09-09T11:58:01;10.30;;;7.43;;
6394;SDS011;3230;42.588;23.358;2022-09-09T12:00:37;12.03;;;7.80;;
6394;SDS011;3230;42.588;23.358;2022-09-09T12:03:29;13.20;;;7.77;;
6394;SDS011;3230;42.588;23.358;2022-09-09T12:06:20;10.47;;;7.40;;
6394;SDS011;3230;42.588;23.358;2022-09-09T12:09:18;12.13;;;7.70;;
6394;SDS011;3230;42.588;23.358;2022-09-09T12:11:48;10.80;;;7.97;;
6394;SDS011;3230;42.588;23.358;2022-09-09T12:14:36;19.40;;;8.60;;
6394;SDS011;3230;42.588;23.358;2022-09-09T12:17:36;14.63;;;7.50;;
6394;SDS011;3230;42.588;23.358;2022-09-09T12:23:03;12.10;;;8.00;;
6394;SDS011;3230;42.588;23.358;2022-09-09T12:28:32;10.00;;;7.07;;
6394;SDS011;3230;42.588;23.358;2022-09-09T12:31:10;11.03;;;7.67;;
6394;SDS011;3230;42.588;23.358;2022-09-09T12:33:43;12.63;;;8.57;;
6394;SDS011;3230;42.588;23.358;2022-09-09T12:36:16;15.47;;;7.40;;
6394;SDS011;3230;42.588;23.358;2022-09-09T12:38:45;12.80;;;7.87;;
6394;SDS011;3230;42.588;23.358;2022-09-09T12:41:18;12.27;;;7.97;;
6394;SDS011;3230;42.588;23.358;2022-09-09T12:43:46;21.73;;;9.10;;
6394;SDS011;3230;42.588;23.358;2022-09-09T12:46:17;13.40;;;8.07;;
6394;SDS011;3230;42.588;23.358;2022-09-09T12:48:53;16.43;;;7.87;;
6394;SDS011;3230;42.588;23.358;2022-09-09T12:51:21;17.50;;;8.23;;
6394;SDS011;3230;42.588;23.358;2022-09-09T12:53:50;12.97;;;7.80;;
6394;SDS011;3230;42.588;23.358;2022-09-09T12:56:19;16.03;;;8.00;;
6394;SDS011;3230;42.588;23.358;2022-09-09T12:58:47;18.70;;;8.40;;
6394;SDS011;3230;42.588;23.358;2022-09-09T13:01:34;19.17;;;7.27;;
6394;SDS011;3230;42.588;23.358;2022-09-09T13:04:00;13.73;;;8.00;;
6394;SDS011;3230;42.588;23.358;2022-09-09T13:06:29;11.53;;;7.53;;
6394;SDS011;3230;42.588;23.358;2022-09-09T13:09:00;13.30;;;7.80;;
6394;SDS011;3230;42.588;23.358;2022-09-09T13:14:03;15.20;;;7.20;;
6394;SDS011;3230;42.588;23.358;2022-09-09T13:16:32;11.20;;;7.57;;
6394;SDS011;3230;42.588;23.358;2022-09-09T13:19:00;13.10;;;7.30;;
6394;SDS011;3230;42.588;23.358;2022-09-09T13:21:34;12.30;;;7.10;;
6394;SDS011;3230;42.588;23.358;2022-09-09T13:24:04;11.67;;;7.10;;
6394;SDS011;3230;42.588;23.358;2022-09-09T13:26:32;8.83;;;6.60;;
6394;SDS011;3230;42.588;23.358;2022-09-09T13:29:14;10.33;;;6.60;;
6394;SDS011;3230;42.588;23.358;2022-09-09T13:31:45;16.67;;;7.43;;
6394;SDS011;3230;42.588;23.358;2022-09-09T13:34:11;12.33;;;7.33;;
6394;SDS011;3230;42.588;23.358;2022-09-09T13:36:39;15.57;;;8.10;;
6394;SDS011;3230;42.588;23.358;2022-09-09T13:39:14;16.17;;;8.27;;
6394;SDS011;3230;42.588;23.358;2022-09-09T13:41:42;11.60;;;8.00;;
6394;SDS011;3230;42.588;23.358;2022-09-09T13:44:25;15.80;;;7.97;;
6394;SDS011;3230;42.588;23.358;2022-09-09T13:47:00;14.53;;;8.57;;
6394;SDS011;3230;42.588;23.358;2022-09-09T13:49:30;10.20;;;6.90;;
6394;SDS011;3230;42.588;23.358;2022-09-09T13:54:33;14.20;;;7.70;;
6394;SDS011;3230;42.588;23.358;2022-09-09T13:56:59;11.77;;;8.27;;
6394;SDS011;3230;42.588;23.358;2022-09-09T13:59:26;11.53;;;7.83;;
6394;SDS011;3230;42.588;23.358;2022-09-09T14:01:52;13.83;;;7.80;;
6394;SDS011;3230;42.588;23.358;2022-09-09T14:04:18;21.47;;;8.20;;
6394;SDS011;3230;42.588;23.358;2022-09-09T14:06:46;16.53;;;8.07;;
6394;SDS011;3230;42.588;23.358;2022-09-09T14:09:13;14.30;;;8.07;;
6394;SDS011;3230;42.588;23.358;2022-09-09T14:11:40;16.30;;;7.80;;
6394;SDS011;3230;42.588;23.358;2022-09-09T14:14:06;14.77;;;8.33;;
6394;SDS011;3230;42.588;23.358;2022-09-09T14:16:31;14.40;;;8.20;;
6394;SDS011;3230;42.588;23.358;2022-09-09T14:18:57;12.20;;;7.97;;
6394;SDS011;3230;42.588;23.358;2022-09-09T14:21:24;11.60;;;8.20;;
6394;SDS011;3230;42.588;23.358;2022-09-09T14:23:50;11.50;;;6.47;;
6394;SDS011;3230;42.588;23.358;2022-09-09T14:26:17;13.10;;;6.67;;
6394;SDS011;3230;42.588;23.358;2022-09-09T14:28:44;18.80;;;7.70;;
6394;SDS011;3230;42.588;23.358;2022-09-09T14:31:10;12.87;;;6.70;;
6394;SDS011;3230;42.588;23.358;2022-09-09T14:33:35;13.03;;;6.90;;
6394;SDS011;3230;42.588;23.358;2022-09-09T14:36:02;20.33;;;7.87;;
6394;SDS011;3230;42.588;23.358;2022-09-09T14:38:29;19.47;;;8.57;;
6394;SDS011;3230;42.588;23.358;2022-09-09T14:40:59;13.20;;;8.60;;
6394;SDS011;3230;42.588;23.358;2022-09-09T14:43:29;14.80;;;7.50;;
6394;SDS011;3230;42.588;23.358;2022-09-09T14:45:57;22.03;;;7.77;;
6394;SDS011;3230;42.588;23.358;2022-09-09T14:48:30;20.57;;;8.30;;
6394;SDS011;3230;42.588;23.358;2022-09-09T14:50:56;16.23;;;8.00;;
6394;SDS011;3230;42.588;23.358;2022-09-09T14:53:21;20.70;;;8.03;;
6394;SDS011;3230;42.588;23.358;2022-09-09T14:55:46;16.23;;;7.83;;
6394;SDS011;3230;42.588;23.358;2022-09-09T14:58:12;12.53;;;7.90;;
6394;SDS011;3230;42.588;23.358;2022-09-09T15:00:38;14.53;;;8.13;;
6394;SDS011;3230;42.588;23.358;2022-09-09T15:03:04;17.30;;;8.07;;
6394;SDS011;3230;42.588;23.358;2022-09-09T15:05:29;17.23;;;8.80;;
6394;SDS011;3230;42.588;23.358;2022-09-09T15:07:56;11.40;;;8.67;;
6394;SDS011;3230;42.588;23.358;2022-09-09T15:10:23;20.23;;;9.53;;
6394;SDS011;3230;42.588;23.358;2022-09-09T15:12:49;10.37;;;6.80;;
6394;SDS011;3230;42.588;23.358;2022-09-09T15:15:14;15.23;;;7.80;;
6394;SDS011;3230;42.588;23.358;2022-09-09T15:17:40;12.20;;;7.70;;
6394;SDS011;3230;42.588;23.358;2022-09-09T15:20:05;15.43;;;8.50;;
6394;SDS011;3230;42.588;23.358;2022-09-09T15:22:31;10.60;;;8.40;;
6394;SDS011;3230;42.588;23.358;2022-09-09T15:24:57;16.80;;;8.27;;
6394;SDS011;3230;42.588;23.358;2022-09-09T15:27:22;14.93;;;8.50;;
6394;SDS011;3230;42.588;23.358;2022-09-09T15:29:48;19.23;;;8.17;;
6394;SDS011;3230;42.588;23.358;2022-09-09T15:32:15;11.70;;;8.63;;
6394;SDS011;3230;42.588;23.358;2022-09-09T15:34:40;20.13;;;8.90;;
6394;SDS011;3230;42.588;23.358;2022-09-09T15:37:06;15.70;;;8.97;;
6394;SDS011;3230;42.588;23.358;2022-09-09T15:39:32;19.93;;;8.40;;
6394;SDS011;3230;42.588;23.358;2022-09-09T15:41:57;29.60;;;9.13;;
6394;SDS011;3230;42.588;23.358;2022-09-09T15:44:22;20.13;;;9.57;;
6394;SDS011;3230;42.588;23.358;2022-09-09T15:46:51;18.63;;;8.10;;
6394;SDS011;3230;42.588;23.358;2022-09-09T15:49:22;17.50;;;8.03;;
6394;SDS011;3230;42.588;23.358;2022-09-09T15:51:54;13.37;;;8.87;;
6394;SDS011;3230;42.588;23.358;2022-09-09T15:54:24;14.53;;;8.10;;
6394;SDS011;3230;42.588;23.358;2022-09-09T15:56:52;14.97;;;9.03;;
6394;SDS011;3230;42.588;23.358;2022-09-09T15:59:21;19.10;;;9.53;;
6394;SDS011;3230;42.588;23.358;2022-09-09T16:01:50;12.00;;;8.27;;
6394;SDS011;3230;42.588;23.358;2022-09-09T16:04:17;13.13;;;9.40;;
6394;SDS011;3230;42.588;23.358;2022-09-09T16:06:48;19.60;;;10.77;;
6394;SDS011;3230;42.588;23.358;2022-09-09T16:09:17;17.60;;;11.90;;
6394;SDS011;3230;42.588;23.358;2022-09-09T16:11:44;19.50;;;11.40;;
6394;SDS011;3230;42.588;23.358;2022-09-09T16:14:09;21.70;;;11.47;;
6394;SDS011;3230;42.588;23.358;2022-09-09T16:16:36;18.97;;;10.30;;
6394;SDS011;3230;42.588;23.358;2022-09-09T16:19:05;16.93;;;11.30;;
6394;SDS011;3230;42.588;23.358;2022-09-09T16:21:34;19.27;;;10.43;;
6394;SDS011;3230;42.588;23.358;2022-09-09T16:24:02;14.80;;;10.00;;
6394;SDS011;3230;42.588;23.358;2022-09-09T16:26:29;13.80;;;9.33;;
6394;SDS011;3230;42.588;23.358;2022-09-09T16:28:56;14.20;;;9.20;;
6394;SDS011;3230;42.588;23.358;2022-09-09T16:31:23;20.47;;;9.87;;
6394;SDS011;3230;42.588;23.358;2022-09-09T16:33:50;16.07;;;9.80;;
6394;SDS011;3230;42.588;23.358;2022-09-09T16:36:20;22.63;;;10.23;;
6394;SDS011;3230;42.588;23.358;2022-09-09T16:38:47;23.97;;;13.00;;
6394;SDS011;3230;42.588;23.358;2022-09-09T16:41:14;27.80;;;13.83;;
6394;SDS011;3230;42.588;23.358;2022-09-09T16:43:40;23.67;;;12.83;;
6394;SDS011;3230;42.588;23.358;2022-09-09T16:46:11;22.57;;;11.80;;
6394;SDS011;3230;42.588;23.358;2022-09-09T16:48:40;32.00;;;12.40;;
6394;SDS011;3230;42.588;23.358;2022-09-09T16:51:08;25.13;;;12.13;;
6394;SDS011;3230;42.588;23.358;2022-09-09T16:53:39;20.40;;;10.47;;
6394;SDS011;3230;42.588;23.358;2022-09-09T16:56:08;70.40;;;28.40;;
6394;SDS011;3230;42.588;23.358;2022-09-09T16:58:35;32.97;;;17.80;;
6394;SDS011;3230;42.588;23.358;2022-09-09T17:01:02;29.13;;;14.63;;
6394;SDS011;3230;42.588;23.358;2022-09-09T17:03:28;18.27;;;11.83;;
6394;SDS011;3230;42.588;23.358;2022-09-09T17:05:54;22.43;;;9.80;;
6394;SDS011;3230;42.588;23.358;2022-09-09T17:08:22;18.70;;;10.07;;
6394;SDS011;3230;42.588;23.358;2022-09-09T17:10:47;22.50;;;9.90;;
6394;SDS011;3230;42.588;23.358;2022-09-09T17:13:13;23.87;;;10.43;;
6394;SDS011;3230;42.588;23.358;2022-09-09T17:15:42;21.50;;;9.60;;
6394;SDS011;3230;42.588;23.358;2022-09-09T17:18:10;16.87;;;9.30;;
6394;SDS011;3230;42.588;23.358;2022-09-09T17:20:37;17.87;;;9.23;;
6394;SDS011;3230;42.588;23.358;2022-09-09T17:23:04;19.53;;;9.50;;
6394;SDS011;3230;42.588;23.358;2022-09-09T17:25:31;15.30;;;9.67;;